createdAt,value
2018-03-21T00:02:20.409Z,98705.55
2018-03-21T00:04:47.976Z,98706.61
2018-03-21T00:07:15.517Z,98707.20
2018-03-21T00:09:43.407Z,98713.20
2018-03-21T00:12:11.089Z,98711.80
2018-03-21T00:14:38.731Z,98712.37
2018-03-21T00:17:06.416Z,98712.75
2018-03-21T00:19:34.105Z,98717.20
2018-03-21T00:22:01.882Z,98711.55
2018-03-21T00:24:29.547Z,98720.36
2018-03-21T00:26:57.409Z,98719.25
2018-03-21T00:29:24.931Z,98718.53
2018-03-21T00:31:52.568Z,98728.11
2018-03-21T00:34:21.236Z,98729.45
2018-03-21T00:36:48.839Z,98730.75
2018-03-21T00:39:16.680Z,98730.09
2018-03-21T00:41:44.940Z,98734.74
2018-03-21T00:44:12.481Z,98740.39
2018-03-21T00:46:40.250Z,98736.64
2018-03-21T00:49:07.837Z,98741.06
2018-03-21T00:51:35.581Z,98748.75
2018-03-21T00:54:03.278Z,98751.65
2018-03-21T00:56:31.641Z,98750.53
2018-03-21T00:58:59.371Z,98746.28
2018-03-21T01:01:26.940Z,98753.33
2018-03-21T01:03:54.735Z,98754.26
2018-03-21T01:06:22.551Z,98752.82
2018-03-21T01:08:50.094Z,98756.38
2018-03-21T01:11:17.620Z,98750.94
2018-03-21T01:13:45.411Z,98751.39
2018-03-21T01:16:13.630Z,98754.67
2018-03-21T01:18:41.198Z,98756.39
2018-03-21T01:21:09.060Z,98758.66
2018-03-21T01:23:36.641Z,98756.88
2018-03-21T01:26:04.359Z,98753.52
2018-03-21T01:28:31.916Z,98754.23
2018-03-21T01:30:59.601Z,98753.58
2018-03-21T01:33:27.133Z,98757.02
2018-03-21T01:35:54.721Z,98748.55
2018-03-21T01:38:22.625Z,98746.40
2018-03-21T01:40:50.355Z,98750.02
2018-03-21T01:43:17.976Z,98749.27
2018-03-21T01:45:45.636Z,98755.52
2018-03-21T01:48:13.471Z,98745.70
2018-03-21T01:50:41.140Z,98747.00
2018-03-21T01:53:10.499Z,98744.88
2018-03-21T01:55:38.050Z,98742.36
2018-03-21T01:58:05.684Z,98749.52
2018-03-21T02:00:33.429Z,98755.95
2018-03-21T02:03:01.115Z,98753.15
2018-03-21T02:05:28.885Z,98748.12
2018-03-21T02:07:56.497Z,98756.31
2018-03-21T02:10:24.655Z,98750.56
2018-03-21T02:12:52.370Z,98751.84
2018-03-21T02:15:19.953Z,98757.13
2018-03-21T02:17:47.483Z,98761.75
2018-03-21T02:20:15.119Z,98762.09
2018-03-21T02:22:42.680Z,98757.03
2018-03-21T02:25:10.380Z,98756.69
2018-03-21T02:27:38.126Z,98758.09
2018-03-21T02:30:05.822Z,98756.19
2018-03-21T02:32:34.060Z,98762.73
2018-03-21T02:35:01.856Z,98764.76
2018-03-21T02:37:29.544Z,98765.00
2018-03-21T02:39:57.251Z,98768.47
2018-03-21T02:42:25.588Z,98764.03
2018-03-21T02:44:53.141Z,98772.11
2018-03-21T02:47:22.179Z,98769.78
2018-03-21T02:49:49.801Z,98762.86
2018-03-21T02:52:17.517Z,98762.66
2018-03-21T02:54:45.130Z,98772.56
2018-03-21T02:57:12.826Z,98782.05
2018-03-21T02:59:40.388Z,98776.12
2018-03-21T03:02:08.298Z,98779.99
2018-03-21T03:04:35.985Z,98778.97
2018-03-21T03:07:03.744Z,98783.54
2018-03-21T03:09:31.686Z,98786.06
2018-03-21T03:11:59.496Z,98802.78
2018-03-21T03:14:27.064Z,98799.08
2018-03-21T03:16:54.709Z,98797.52
2018-03-21T03:19:22.646Z,98802.96
2018-03-21T03:21:50.264Z,98795.61
2018-03-21T03:24:17.946Z,98805.67
2018-03-21T03:26:45.488Z,98803.59
2018-03-21T03:29:13.339Z,98803.47
2018-03-21T03:31:41.055Z,98806.93
2018-03-21T03:34:08.603Z,98804.96
2018-03-21T03:36:36.246Z,98808.78
2018-03-21T03:39:04.483Z,98804.14
2018-03-21T03:41:32.024Z,98810.73
2018-03-21T03:43:59.554Z,98810.55
2018-03-21T03:46:27.300Z,98813.22
2018-03-21T03:48:55.124Z,98807.50
2018-03-21T03:51:22.759Z,98804.55
2018-03-21T03:53:50.285Z,98809.08
2018-03-21T03:56:17.850Z,98813.38
2018-03-21T03:58:45.965Z,98809.63
2018-03-21T04:01:13.716Z,98811.33
2018-03-21T04:03:41.413Z,98810.72
2018-03-21T04:06:09.157Z,98811.34
2018-03-21T04:08:36.745Z,98810.72
2018-03-21T04:11:04.390Z,98817.89
2018-03-21T04:13:32.325Z,98816.80
2018-03-21T04:15:59.860Z,98817.27
2018-03-21T04:18:27.618Z,98819.81
2018-03-21T04:20:55.241Z,98822.64
2018-03-21T04:23:23.689Z,98824.94
2018-03-21T04:25:51.208Z,98822.19
2018-03-21T04:28:18.979Z,98823.98
2018-03-21T04:30:46.800Z,98826.31
2018-03-21T04:33:14.769Z,98821.99
2018-03-21T04:35:42.383Z,98822.91
2018-03-21T04:38:10.201Z,98833.96
2018-03-21T04:40:37.986Z,98831.91
2018-03-21T04:43:05.526Z,98825.55
2018-03-21T04:45:33.116Z,98824.89
2018-03-21T04:48:00.785Z,98831.96
2018-03-21T04:50:28.630Z,98837.38
2018-03-21T04:52:56.328Z,98836.05
2018-03-21T04:55:24.085Z,98836.27
2018-03-21T04:57:51.701Z,98835.97
2018-03-21T05:00:19.279Z,98841.59
2018-03-21T05:02:46.803Z,98843.31
2018-03-21T05:05:14.428Z,98835.33
2018-03-21T05:07:42.069Z,98837.87
2018-03-21T05:10:09.675Z,98842.13
2018-03-21T05:12:37.305Z,98849.37
2018-03-21T05:15:04.926Z,98850.95
2018-03-21T05:17:32.578Z,98846.34
2018-03-21T05:20:00.414Z,98851.19
2018-03-21T05:22:28.264Z,98852.43
2018-03-21T05:24:56.055Z,98857.83
2018-03-21T05:27:23.909Z,98869.36
2018-03-21T05:29:51.430Z,98860.32
2018-03-21T05:32:19.036Z,98860.42
2018-03-21T05:34:46.695Z,98868.13
2018-03-21T05:37:14.236Z,98871.88
2018-03-21T05:39:41.873Z,98874.47
2018-03-21T05:42:09.505Z,98879.75
2018-03-21T05:44:37.114Z,98886.45
2018-03-21T05:47:05.093Z,98885.86
2018-03-21T05:49:32.682Z,98885.30
2018-03-21T05:52:00.251Z,98894.86
2018-03-21T05:54:27.934Z,98898.97
2018-03-21T05:56:55.523Z,98895.30
2018-03-21T05:59:23.405Z,98902.89
2018-03-21T06:01:51.004Z,98904.08
2018-03-21T06:04:18.846Z,98900.89
2018-03-21T06:06:47.164Z,98904.78
2018-03-21T06:09:14.840Z,98915.64
2018-03-21T06:11:42.560Z,98921.77
2018-03-21T06:14:10.342Z,98921.33
2018-03-21T06:16:38.113Z,98923.42
2018-03-21T06:19:05.762Z,98923.12
2018-03-21T06:21:33.594Z,98924.45
2018-03-21T06:24:01.865Z,98932.78
2018-03-21T06:26:29.664Z,98930.30
2018-03-21T06:28:57.240Z,98933.57
2018-03-21T06:31:24.980Z,98942.86
2018-03-21T06:33:52.630Z,98938.60
2018-03-21T06:36:20.415Z,98945.12
2018-03-21T06:38:48.073Z,98939.15
2018-03-21T06:41:15.828Z,98943.59
2018-03-21T06:43:43.424Z,98950.39
2018-03-21T06:46:10.984Z,98955.97
2018-03-21T06:48:38.745Z,98951.11
2018-03-21T06:51:07.268Z,98955.34
2018-03-21T06:53:34.946Z,98944.72
2018-03-21T06:56:02.723Z,98948.31
2018-03-21T06:58:30.464Z,98953.12
2018-03-21T07:00:58.273Z,98953.36
2018-03-21T07:03:25.995Z,98958.38
2018-03-21T07:05:53.516Z,98969.26
2018-03-21T07:08:21.332Z,98980.12
2018-03-21T07:10:49.210Z,98986.21
2018-03-21T07:13:16.943Z,98985.83
2018-03-21T07:15:56.555Z,98981.42
2018-03-21T07:18:24.241Z,98986.88
2018-03-21T07:20:52.054Z,98990.55
2018-03-21T07:23:19.715Z,98988.29
2018-03-21T07:25:47.665Z,98993.41
2018-03-21T07:28:15.293Z,98996.67
2018-03-21T07:30:42.845Z,98995.53
2018-03-21T07:33:10.599Z,98993.67
2018-03-21T07:35:38.480Z,98995.27
2018-03-21T07:38:06.441Z,98999.44
2018-03-21T07:40:34.214Z,99008.93
2018-03-21T07:43:02.140Z,98999.17
2018-03-21T07:45:29.981Z,99006.78
2018-03-21T07:47:57.560Z,99007.86
2018-03-21T07:50:25.458Z,99009.87
2018-03-21T07:52:53.185Z,99005.44
2018-03-21T07:55:21.113Z,99014.50
2018-03-21T07:57:48.640Z,99015.80
2018-03-21T08:00:16.475Z,99014.91
2018-03-21T08:02:44.164Z,99017.86
2018-03-21T08:05:11.971Z,99012.05
2018-03-21T08:07:39.725Z,99017.25
2018-03-21T08:10:07.674Z,99025.94
2018-03-21T08:12:35.361Z,99028.23
2018-03-21T08:15:03.130Z,99028.56
2018-03-21T08:17:30.732Z,99032.59
2018-03-21T08:19:58.359Z,99035.55
2018-03-21T08:22:26.068Z,99034.67
2018-03-21T08:24:53.775Z,99039.63
2018-03-21T08:27:21.552Z,99038.91
2018-03-21T08:29:49.103Z,99045.27
2018-03-21T08:32:16.635Z,99049.51
2018-03-21T08:34:44.604Z,99054.19
2018-03-21T08:37:12.523Z,99047.12
2018-03-21T08:39:40.310Z,99057.04
2018-03-21T08:42:08.219Z,99055.48
2018-03-21T08:44:50.401Z,99052.83
2018-03-21T08:47:18.295Z,99055.35
2018-03-21T08:49:45.939Z,99063.86
2018-03-21T08:52:13.569Z,99059.95
2018-03-21T08:54:41.116Z,99062.13
2018-03-21T08:57:08.659Z,99067.16
2018-03-21T08:59:36.315Z,99058.95
2018-03-21T09:02:03.880Z,99060.23
2018-03-21T09:04:31.459Z,99059.48
2018-03-21T09:06:59.105Z,99062.72
2018-03-21T09:09:26.820Z,99065.78
2018-03-21T09:11:54.750Z,99062.50
2018-03-21T09:14:22.310Z,99065.83
2018-03-21T09:16:49.919Z,99065.45
2018-03-21T09:19:17.569Z,99067.50
2018-03-21T09:21:45.203Z,99066.20
2018-03-21T09:24:12.936Z,99069.23
2018-03-21T09:26:40.655Z,99068.83
2018-03-21T09:29:08.466Z,99069.83
2018-03-21T09:31:35.993Z,99071.83
2018-03-21T09:34:03.606Z,99074.47
2018-03-21T09:36:31.444Z,99075.23
2018-03-21T09:38:58.976Z,99074.66
2018-03-21T09:41:26.506Z,99067.30
2018-03-21T09:43:54.064Z,99063.69
2018-03-21T09:46:21.664Z,99058.46
2018-03-21T09:48:49.303Z,99063.09
2018-03-21T09:51:16.855Z,99059.13
2018-03-21T09:53:44.536Z,99056.63
2018-03-21T09:56:12.499Z,99054.70
2018-03-21T09:58:40.111Z,99053.20
2018-03-21T10:01:07.898Z,99050.84
2018-03-21T10:03:35.464Z,99049.30
2018-03-21T10:06:03.112Z,99043.65
2018-03-21T10:08:30.829Z,99047.34
2018-03-21T10:10:58.355Z,99049.46
2018-03-21T10:13:26.531Z,99048.58
2018-03-21T10:15:54.195Z,99049.86
2018-03-21T10:18:21.874Z,99046.69
2018-03-21T10:20:49.516Z,99034.71
2018-03-21T10:23:17.092Z,99032.90
2018-03-21T10:25:44.859Z,99042.34
2018-03-21T10:28:12.457Z,99038.92
2018-03-21T10:30:40.069Z,99029.77
2018-03-21T10:33:07.612Z,99035.50
2018-03-21T10:35:35.289Z,99031.32
2018-03-21T10:38:02.939Z,99034.09
2018-03-21T10:40:30.488Z,99026.09
2018-03-21T10:42:58.314Z,99045.73
2018-03-21T10:45:26.013Z,99037.58
2018-03-21T10:47:53.839Z,99036.30
2018-03-21T10:50:21.695Z,99039.86
2018-03-21T10:52:49.290Z,99045.59
2018-03-21T10:55:16.862Z,99039.66
2018-03-21T10:57:44.771Z,99027.49
2018-03-21T11:00:12.465Z,99029.01
2018-03-21T11:02:46.139Z,99041.63
2018-03-21T11:05:21.015Z,99036.98
2018-03-21T11:07:48.540Z,99033.52
2018-03-21T11:10:16.120Z,99036.88
2018-03-21T11:12:43.780Z,99038.41
2018-03-21T11:15:11.814Z,99035.72
2018-03-21T11:17:39.613Z,99029.59
2018-03-21T11:20:07.216Z,99034.88
2018-03-21T11:22:34.800Z,99031.17
2018-03-21T11:25:02.365Z,99024.59
2018-03-21T11:27:29.909Z,99028.66
2018-03-21T11:29:57.626Z,99027.30
2018-03-21T11:32:26.241Z,99025.69
2018-03-21T11:34:54.083Z,99021.44
2018-03-21T11:37:21.644Z,99032.08
2018-03-21T11:39:49.508Z,99024.17
2018-03-21T11:42:26.282Z,99024.95
2018-03-21T11:44:53.907Z,99018.23
2018-03-21T11:47:21.564Z,99010.87
2018-03-21T11:49:49.161Z,99017.50
2018-03-21T11:52:17.081Z,99016.14
2018-03-21T11:54:46.650Z,99007.23
2018-03-21T11:57:14.363Z,99005.76
2018-03-21T11:59:41.930Z,99008.65
2018-03-21T12:02:09.461Z,99009.20
2018-03-21T12:04:37.937Z,99003.00
2018-03-21T12:07:05.651Z,99008.95
2018-03-21T12:09:33.178Z,99003.17
2018-03-21T12:12:01.016Z,99004.27
2018-03-21T12:14:28.685Z,99005.88
2018-03-21T12:16:56.370Z,99012.59
2018-03-21T12:19:24.031Z,98989.74
2018-03-21T12:21:51.575Z,98995.16
2018-03-21T12:24:19.271Z,98993.55
2018-03-21T12:26:46.843Z,98993.97
2018-03-21T12:29:14.993Z,98985.41
2018-03-21T12:31:42.592Z,98988.37
2018-03-21T12:34:10.464Z,98976.86
2018-03-21T12:36:38.152Z,98979.52
2018-03-21T12:39:05.740Z,98978.09
2018-03-21T12:41:33.433Z,98977.40
2018-03-21T12:44:01.460Z,98984.75
2018-03-21T12:46:28.999Z,98976.18
2018-03-21T12:48:56.804Z,98976.47
2018-03-21T12:51:24.664Z,98962.23
2018-03-21T12:53:52.274Z,98968.83
2018-03-21T12:56:20.131Z,98969.12
2018-03-21T12:58:47.609Z,98974.34
2018-03-21T13:01:15.193Z,98965.37
2018-03-21T13:03:42.805Z,98964.31
2018-03-21T13:06:10.490Z,98968.78
2018-03-21T13:08:38.323Z,98966.41
2018-03-21T13:11:06.850Z,98966.65
2018-03-21T13:13:34.471Z,98971.80
2018-03-21T13:16:02.092Z,98973.70
2018-03-21T13:18:29.644Z,98977.23
2018-03-21T13:20:58.390Z,98973.63
2018-03-21T13:23:25.928Z,98973.89
2018-03-21T13:25:53.805Z,98972.28
2018-03-21T13:28:21.429Z,98964.41
2018-03-21T13:30:49.210Z,98965.53
2018-03-21T13:33:17.106Z,98957.91
2018-03-21T13:35:44.638Z,98962.89
2018-03-21T13:38:12.242Z,98961.25
2018-03-21T13:40:40.003Z,98956.98
2018-03-21T13:43:07.605Z,98966.06
2018-03-21T13:45:35.250Z,98962.25
2018-03-21T13:48:02.889Z,98960.10
2018-03-21T13:50:31.240Z,98953.02
2018-03-21T13:52:58.934Z,98933.09
2018-03-21T13:55:26.883Z,98958.34
2018-03-21T13:57:54.596Z,98952.52
2018-03-21T14:00:22.228Z,98946.28
2018-03-21T14:02:49.789Z,98953.74
2018-03-21T14:05:17.643Z,98946.23
2018-03-21T14:07:45.824Z,98941.23
2018-03-21T14:10:13.400Z,98945.31
2018-03-21T14:12:40.939Z,98946.98
2018-03-21T14:15:08.481Z,98951.61
2018-03-21T14:17:36.148Z,98950.33
2018-03-21T14:20:03.763Z,98951.59
2018-03-21T14:22:31.403Z,98951.22
2018-03-21T14:24:59.634Z,98944.42
2018-03-21T14:27:27.239Z,98946.31
2018-03-21T14:29:54.935Z,98941.70
2018-03-21T14:32:22.675Z,98941.25
2018-03-21T14:34:50.380Z,98950.67
2018-03-21T14:37:19.714Z,98947.05
2018-03-21T14:39:47.484Z,98948.52
2018-03-21T14:42:16.760Z,98936.03
2018-03-21T14:44:44.384Z,98933.63
2018-03-21T14:47:11.962Z,98931.53
2018-03-21T14:49:39.583Z,98928.84
2018-03-21T14:52:07.258Z,98930.38
2018-03-21T14:54:35.013Z,98938.30
2018-03-21T14:57:02.704Z,98940.86
2018-03-21T14:59:30.315Z,98929.94
2018-03-21T15:01:58.005Z,98933.04
2018-03-21T15:04:25.526Z,98930.42
2018-03-21T15:06:54.087Z,98934.75
2018-03-21T15:09:21.732Z,98938.02
2018-03-21T15:11:49.524Z,98938.25
2018-03-21T15:14:17.679Z,98929.20
2018-03-21T15:16:45.505Z,98931.73
2018-03-21T15:19:13.110Z,98929.51
2018-03-21T15:21:41.491Z,98927.63
2018-03-21T15:24:09.313Z,98928.17
2018-03-21T15:26:36.854Z,98937.23
2018-03-21T15:29:04.605Z,98936.83
2018-03-21T15:31:32.196Z,98937.20
2018-03-21T15:33:59.905Z,98928.23
2018-03-21T15:36:27.521Z,98922.30
2018-03-21T15:38:55.233Z,98911.52
2018-03-21T15:41:23.053Z,98915.34
2018-03-21T15:43:50.604Z,98909.58
2018-03-21T15:46:18.463Z,98914.56
2018-03-21T15:48:46.020Z,98915.40
2018-03-21T15:51:13.624Z,98921.85
2018-03-21T15:53:41.189Z,98914.80
2018-03-21T15:56:08.836Z,98914.99
2018-03-21T15:58:36.384Z,98915.43
2018-03-21T16:01:04.208Z,98913.22
2018-03-21T16:03:31.749Z,98912.38
2018-03-21T16:05:59.635Z,98924.66
2018-03-21T16:08:27.235Z,98923.69
2018-03-21T16:10:55.014Z,98929.95
2018-03-21T16:13:22.810Z,98931.89
2018-03-21T16:15:50.413Z,98930.25
2018-03-21T16:18:17.939Z,98928.98
2018-03-21T16:20:45.630Z,98934.76
2018-03-21T16:23:13.334Z,98941.21
2018-03-21T16:25:41.070Z,98947.09
2018-03-21T16:28:08.730Z,98939.86
2018-03-21T16:30:36.706Z,98957.36
2018-03-21T16:33:04.298Z,98945.42
2018-03-21T16:35:32.178Z,98954.03
2018-03-21T16:37:59.956Z,98956.84
2018-03-21T16:40:28.372Z,98960.16
2018-03-21T16:42:56.101Z,98963.50
2018-03-21T16:45:23.841Z,98963.30
2018-03-21T16:47:51.448Z,98967.96
2018-03-21T16:50:19.105Z,98976.67
2018-03-21T16:52:46.836Z,98977.09
2018-03-21T16:55:14.444Z,98974.13
2018-03-21T16:57:42.239Z,98968.72
2018-03-21T17:00:09.770Z,98971.47
2018-03-21T17:02:37.410Z,98968.84
2018-03-21T17:05:05.117Z,98975.48
2018-03-21T17:07:33.172Z,98972.11
2018-03-21T17:10:00.734Z,98967.95
2018-03-21T17:12:29.144Z,98969.09
2018-03-21T17:14:56.745Z,98967.40
2018-03-21T17:17:24.666Z,98967.03
2018-03-21T17:19:52.381Z,98966.02
2018-03-21T17:22:20.042Z,98968.35
2018-03-21T17:24:47.781Z,98971.11
2018-03-21T17:27:15.458Z,98969.80
2018-03-21T17:29:43.104Z,98972.97
2018-03-21T17:32:10.802Z,98973.75
2018-03-21T17:34:38.450Z,98973.11
2018-03-21T17:37:06.094Z,98969.16
2018-03-21T17:39:33.779Z,98972.27
2018-03-21T17:42:01.396Z,98978.46
2018-03-21T17:44:29.009Z,98980.93
2018-03-21T17:46:56.662Z,98988.55
2018-03-21T17:49:24.189Z,98981.13
2018-03-21T17:51:52.076Z,98981.55
2018-03-21T17:54:19.851Z,98979.96
2018-03-21T17:56:47.465Z,98985.89
2018-03-21T17:59:15.142Z,98986.30
2018-03-21T18:01:43.159Z,98988.73
2018-03-21T18:04:11.071Z,98995.02
2018-03-21T18:06:38.719Z,98998.22
2018-03-21T18:09:06.254Z,98994.42
2018-03-21T18:11:34.765Z,99002.03
2018-03-21T18:14:02.455Z,98998.94
2018-03-21T18:16:30.180Z,99004.82
2018-03-21T18:18:57.732Z,99003.73
2018-03-21T18:21:25.883Z,99006.31
2018-03-21T18:23:53.463Z,99007.34
2018-03-21T18:26:21.464Z,99014.82
2018-03-21T18:28:49.233Z,99016.25
2018-03-21T18:31:17.078Z,99021.69
2018-03-21T18:33:44.653Z,99021.36
2018-03-21T18:36:12.404Z,99023.91
2018-03-21T18:38:40.384Z,99032.55
2018-03-21T18:41:07.988Z,99029.12
2018-03-21T18:43:35.824Z,99024.60
2018-03-21T18:46:03.509Z,99032.37
2018-03-21T18:48:31.112Z,99033.06
2018-03-21T18:50:58.937Z,99034.55
2018-03-21T18:53:27.368Z,99033.73
2018-03-21T18:55:56.780Z,99033.20
2018-03-21T18:58:24.585Z,99030.14
2018-03-21T19:00:52.397Z,99028.09
2018-03-21T19:03:20.205Z,99029.75
2018-03-21T19:05:47.932Z,99026.91
2018-03-21T19:08:15.743Z,99023.63
2018-03-21T19:10:43.639Z,99027.09
2018-03-21T19:13:11.221Z,99022.50
2018-03-21T19:15:39.738Z,99025.57
2018-03-21T19:18:07.418Z,99024.53
2018-03-21T19:20:35.269Z,99022.78
2018-03-21T19:23:03.088Z,99028.77
2018-03-21T19:25:30.943Z,99022.88
2018-03-21T19:27:58.657Z,99021.36
2018-03-21T19:30:27.194Z,99022.04
2018-03-21T19:32:54.848Z,99024.35
2018-03-21T19:35:22.584Z,99028.23
2018-03-21T19:37:50.166Z,99028.84
2018-03-21T19:40:18.680Z,99028.28
2018-03-21T19:42:46.404Z,99027.27
2018-03-21T19:47:41.125Z,99028.08
2018-03-21T19:50:08.839Z,99023.97
2018-03-21T19:52:36.606Z,99020.34
2018-03-21T19:55:04.144Z,99016.11
2018-03-21T19:57:31.812Z,99008.28
2018-03-21T19:59:59.674Z,98999.14
2018-03-21T20:02:27.390Z,99006.02
2018-03-21T20:04:55.181Z,99001.53
2018-03-21T20:07:22.989Z,99003.27
2018-03-21T20:09:50.659Z,99007.25
2018-03-21T20:12:18.448Z,99010.05
2018-03-21T20:14:46.709Z,99011.67
2018-03-21T20:17:15.033Z,99006.78
2018-03-21T20:19:42.793Z,99004.94
2018-03-21T20:22:11.015Z,99010.22
2018-03-21T20:24:38.560Z,99011.39
2018-03-21T20:27:06.358Z,99011.34
2018-03-21T20:29:34.113Z,99013.28
2018-03-21T20:32:01.764Z,99011.43
2018-03-21T20:34:29.335Z,99010.52
2018-03-21T20:36:57.174Z,99014.53
2018-03-21T20:39:24.864Z,99015.86
2018-03-21T20:41:52.695Z,99018.47
2018-03-21T20:44:20.443Z,99015.16
2018-03-21T20:46:48.238Z,99015.30
2018-03-21T20:49:15.904Z,99010.07
2018-03-21T20:51:43.464Z,99008.57
2018-03-21T20:54:11.218Z,99009.43
2018-03-21T20:56:38.784Z,99009.66
2018-03-21T20:59:06.423Z,98996.34
2018-03-21T21:01:34.185Z,98994.91
2018-03-21T21:04:02.144Z,99002.77
2018-03-21T21:06:29.664Z,99007.60
2018-03-21T21:08:57.458Z,99000.89
2018-03-21T21:11:25.129Z,98998.18
2018-03-21T21:13:52.914Z,98989.49
2018-03-21T21:16:20.490Z,98993.42
2018-03-21T21:18:48.174Z,98995.75
2018-03-21T21:21:15.760Z,98988.58
2018-03-21T21:23:43.316Z,98991.91
2018-03-21T21:26:11.020Z,98994.63
2018-03-21T21:28:38.783Z,98994.49
2018-03-21T21:31:06.675Z,98993.36
2018-03-21T21:33:34.500Z,98990.61
2018-03-21T21:36:02.219Z,98987.31
2018-03-21T21:38:30.022Z,98980.55
2018-03-21T21:40:57.564Z,98977.84
2018-03-21T21:43:25.246Z,98985.56
2018-03-21T21:45:53.132Z,98986.90
2018-03-21T21:48:20.735Z,98980.43
2018-03-21T21:50:48.315Z,98976.24
2018-03-21T21:53:15.890Z,98980.86
2018-03-21T21:55:43.558Z,98983.19
2018-03-21T21:58:11.572Z,98984.98
2018-03-21T22:00:39.681Z,98970.59
2018-03-21T22:03:07.675Z,98970.52
2018-03-21T22:05:35.242Z,98965.08
2018-03-21T22:08:02.985Z,98973.70
2018-03-21T22:10:30.628Z,98971.36
2018-03-21T22:12:58.441Z,98963.56
2018-03-21T22:15:26.063Z,98964.31
2018-03-21T22:17:53.608Z,98963.53
2018-03-21T22:20:21.433Z,98959.16
2018-03-21T22:22:49.100Z,98957.89
2018-03-21T22:25:16.765Z,98949.88
2018-03-21T22:27:44.570Z,98944.70
2018-03-21T22:30:12.304Z,98947.14
2018-03-21T22:32:40.073Z,98946.01
2018-03-21T22:35:08.029Z,98949.11
2018-03-21T22:37:35.679Z,98949.72
2018-03-21T22:40:03.581Z,98941.17
2018-03-21T22:42:31.244Z,98943.75
2018-03-21T22:44:58.879Z,98947.30
2018-03-21T22:47:26.568Z,98946.45
2018-03-21T22:49:54.263Z,98937.84
2018-03-21T22:52:21.794Z,98934.92
2018-03-21T22:54:49.500Z,98937.61
2018-03-21T22:57:17.152Z,98922.41
2018-03-21T22:59:44.894Z,98922.76
2018-03-21T23:02:12.593Z,98925.36
2018-03-21T23:04:40.189Z,98913.27
2018-03-21T23:07:07.834Z,98915.08
2018-03-21T23:09:35.390Z,98916.41
2018-03-21T23:12:03.137Z,98920.56
2018-03-21T23:14:30.855Z,98916.74
2018-03-21T23:16:58.398Z,98920.15
2018-03-21T23:19:26.004Z,98913.14
2018-03-21T23:21:53.711Z,98920.08
2018-03-21T23:24:21.648Z,98907.08
2018-03-21T23:26:49.200Z,98907.77
2018-03-21T23:29:16.779Z,98903.77
2018-03-21T23:31:44.474Z,98897.16
2018-03-21T23:34:12.269Z,98897.08
2018-03-21T23:36:40.243Z,98901.37
2018-03-21T23:39:08.024Z,98898.89
2018-03-21T23:41:35.586Z,98905.57
2018-03-21T23:44:03.316Z,98902.94
2018-03-21T23:46:31.251Z,98902.63
2018-03-21T23:48:58.891Z,98905.26
2018-03-21T23:51:26.449Z,98894.41
2018-03-21T23:53:54.115Z,98895.44
2018-03-21T23:56:21.861Z,98891.44
2018-03-21T23:58:49.418Z,98889.22
